createdAt,value
2018-12-19T00:00:18.473Z,63.19
2018-12-19T00:01:18.478Z,63.50
2018-12-19T00:02:18.448Z,63.19
2018-12-19T00:03:18.455Z,63.19
2018-12-19T00:04:18.425Z,63.40
2018-12-19T00:05:18.417Z,63.53
2018-12-19T00:06:18.405Z,63.40
2018-12-19T00:07:18.387Z,64.04
2018-12-19T00:08:18.398Z,64.02
2018-12-19T00:09:18.364Z,63.81
2018-12-19T00:10:18.352Z,63.95
2018-12-19T00:11:18.340Z,64.25
2018-12-19T00:12:18.327Z,63.92
2018-12-19T00:13:18.349Z,63.32
2018-12-19T00:14:18.305Z,63.53
2018-12-19T00:15:18.293Z,63.74
2018-12-19T00:16:18.279Z,63.43
2018-12-19T00:17:18.271Z,63.43
2018-12-19T00:18:18.256Z,63.32
2018-12-19T00:19:18.265Z,63.50
2018-12-19T00:20:18.234Z,63.32
2018-12-19T00:21:18.221Z,62.26
2018-12-19T00:22:18.207Z,62.68
2018-12-19T00:23:18.204Z,62.68
2018-12-19T00:24:18.202Z,62.37
2018-12-19T00:25:18.173Z,62.37
2018-12-19T00:26:18.159Z,61.96
2018-12-19T00:27:18.148Z,62.37
2018-12-19T00:28:18.136Z,62.24
2018-12-19T00:29:18.147Z,62.24
2018-12-19T00:30:18.113Z,62.06
2018-12-19T00:31:18.101Z,62.47
2018-12-19T00:32:18.097Z,62.26
2018-12-19T00:33:18.077Z,61.96
2018-12-19T00:34:18.086Z,61.85
2018-12-19T00:35:18.052Z,61.52
2018-12-19T00:36:18.044Z,61.75
2018-12-19T00:37:18.030Z,61.65
2018-12-19T00:38:18.036Z,61.54
2018-12-19T00:39:18.010Z,61.65
2018-12-19T00:40:17.997Z,61.75
2018-12-19T00:41:17.985Z,61.75
2018-12-19T00:42:17.969Z,61.75
2018-12-19T00:43:17.981Z,61.33
2018-12-19T00:44:17.946Z,61.44
2018-12-19T00:45:17.934Z,61.75
2018-12-19T00:46:17.924Z,60.89
2018-12-19T00:47:17.910Z,61.44
2018-12-19T00:48:17.897Z,61.72
2018-12-19T00:49:17.908Z,61.85
2018-12-19T00:50:17.873Z,61.85
2018-12-19T00:51:17.865Z,62.16
2018-12-19T00:52:17.849Z,61.96
2018-12-19T00:53:17.838Z,62.26
2018-12-19T00:54:17.843Z,62.26
2018-12-19T00:55:17.812Z,62.26
2018-12-19T00:56:17.802Z,62.06
2018-12-19T00:57:17.790Z,62.57
2018-12-19T00:58:17.778Z,62.68
2018-12-19T00:59:17.787Z,62.40
2018-12-19T01:00:17.755Z,62.99
2018-12-19T01:01:17.745Z,62.26
2018-12-19T01:02:17.727Z,63.32
2018-12-19T01:03:17.717Z,63.22
2018-12-19T01:04:17.723Z,63.29
2018-12-19T01:05:17.693Z,63.64
2018-12-19T01:06:17.680Z,63.95
2018-12-19T01:07:17.669Z,63.95
2018-12-19T01:08:17.657Z,63.95
2018-12-19T01:09:17.663Z,63.95
2018-12-19T01:10:17.632Z,64.46
2018-12-19T01:11:17.622Z,64.25
2018-12-19T01:12:17.610Z,64.56
2018-12-19T01:13:17.597Z,64.56
2018-12-19T01:14:17.606Z,65.39
2018-12-19T01:15:17.576Z,65.18
2018-12-19T01:16:17.566Z,65.28
2018-12-19T01:17:17.553Z,65.08
2018-12-19T01:18:17.541Z,65.28
2018-12-19T01:19:17.572Z,65.59
2018-12-19T01:20:17.520Z,65.80
2018-12-19T01:21:17.506Z,65.49
2018-12-19T01:22:17.498Z,65.49
2018-12-19T01:23:17.485Z,65.91
2018-12-19T01:24:17.475Z,65.39
2018-12-19T01:25:17.479Z,65.39
2018-12-19T01:26:17.451Z,65.49
2018-12-19T01:27:17.437Z,65.59
2018-12-19T01:28:17.431Z,66.21
2018-12-19T01:29:17.416Z,66.11
2018-12-19T01:30:17.422Z,65.91
2018-12-19T01:31:17.391Z,66.66
2018-12-19T01:32:17.381Z,66.35
2018-12-19T01:33:17.369Z,67.07
2018-12-19T01:34:17.357Z,67.17
2018-12-19T01:35:17.364Z,66.14
2018-12-19T01:36:17.333Z,66.97
2018-12-19T01:37:17.321Z,66.45
2018-12-19T01:38:17.317Z,66.14
2018-12-19T01:39:22.496Z,66.86
2018-12-19T01:40:18.311Z,66.66
2018-12-19T01:41:17.275Z,66.66
2018-12-19T01:42:17.264Z,66.86
2018-12-19T01:43:17.252Z,66.76
2018-12-19T01:44:17.240Z,67.17
2018-12-19T01:45:17.227Z,67.17
2018-12-19T01:46:17.235Z,66.97
2018-12-19T01:47:17.204Z,67.07
2018-12-19T01:48:17.198Z,66.97
2018-12-19T01:49:17.184Z,66.97
2018-12-19T01:50:17.171Z,67.17
2018-12-19T01:51:17.174Z,66.55
2018-12-19T01:52:17.148Z,66.66
2018-12-19T01:53:17.134Z,66.55
2018-12-19T01:54:17.121Z,66.76
2018-12-19T01:55:17.113Z,67.38
2018-12-19T01:56:17.121Z,67.48
2018-12-19T01:57:17.088Z,67.07
2018-12-19T01:58:17.080Z,67.10
2018-12-19T01:59:17.066Z,67.30
2018-12-19T02:00:17.055Z,67.07
2018-12-19T02:01:17.048Z,66.97
2018-12-19T02:02:17.050Z,66.86
2018-12-19T02:03:17.021Z,66.97
2018-12-19T02:04:17.007Z,66.86
2018-12-19T02:05:16.995Z,66.55
2018-12-19T02:06:16.984Z,67.07
2018-12-19T02:07:16.990Z,66.35
2018-12-19T02:08:16.960Z,66.35
2018-12-19T02:09:16.947Z,66.35
2018-12-19T02:10:16.934Z,66.55
2018-12-19T02:11:16.924Z,67.17
2018-12-19T02:12:16.933Z,66.35
2018-12-19T02:13:16.901Z,66.55
2018-12-19T02:14:16.889Z,67.17
2018-12-19T02:15:16.878Z,66.76
2018-12-19T02:16:16.865Z,67.07
2018-12-19T02:17:16.871Z,66.66
2018-12-19T02:18:16.843Z,67.17
2018-12-19T02:19:16.831Z,67.27
2018-12-19T02:20:16.818Z,67.17
2018-12-19T02:21:16.806Z,67.27
2018-12-19T02:22:16.815Z,67.17
2018-12-19T02:23:16.783Z,66.55
2018-12-19T02:24:16.771Z,66.66
2018-12-19T02:25:16.760Z,67.07
2018-12-19T02:26:16.758Z,67.07
2018-12-19T02:27:16.756Z,66.55
2018-12-19T02:28:16.727Z,66.97
2018-12-19T02:29:16.727Z,67.07
2018-12-19T02:30:16.706Z,67.48
2018-12-19T02:31:16.712Z,66.97
2018-12-19T02:32:16.678Z,67.27
2018-12-19T02:33:16.666Z,67.07
2018-12-19T02:34:16.658Z,67.07
2018-12-19T02:35:16.654Z,67.07
2018-12-19T02:36:16.651Z,67.27
2018-12-19T02:37:16.621Z,66.86
2018-12-19T02:38:16.607Z,66.97
2018-12-19T02:39:16.597Z,67.07
2018-12-19T02:40:16.584Z,67.17
2018-12-19T02:41:16.591Z,66.97
2018-12-19T02:42:16.561Z,67.38
2018-12-19T02:43:16.550Z,67.07
2018-12-19T02:44:16.541Z,67.38
2018-12-19T02:45:16.529Z,67.58
2018-12-19T02:46:16.555Z,67.48
2018-12-19T02:47:16.507Z,67.79
2018-12-19T02:48:16.493Z,67.48
2018-12-19T02:49:16.484Z,67.69
2018-12-19T02:50:16.475Z,67.76
2018-12-19T02:51:16.460Z,67.58
2018-12-19T02:52:16.465Z,67.69
2018-12-19T02:53:16.436Z,67.90
2018-12-19T02:54:16.426Z,67.69
2018-12-19T02:55:16.413Z,67.58
2018-12-19T02:56:16.401Z,67.45
2018-12-19T02:57:16.409Z,67.45
2018-12-19T02:58:16.383Z,67.79
2018-12-19T02:59:16.368Z,68.07
2018-12-19T03:00:16.356Z,67.76
2018-12-19T03:01:16.345Z,67.69
2018-12-19T03:02:16.369Z,68.21
2018-12-19T03:03:16.327Z,68.00
2018-12-19T03:04:16.310Z,68.17
2018-12-19T03:05:16.300Z,68.41
2018-12-19T03:06:16.288Z,68.21
2018-12-19T03:07:16.277Z,68.51
2018-12-19T03:08:16.288Z,68.41
2018-12-19T03:09:16.255Z,68.62
2018-12-19T03:10:16.242Z,68.72
2018-12-19T03:11:16.231Z,68.41
2018-12-19T03:12:16.218Z,68.27
2018-12-19T03:13:16.226Z,68.38
2018-12-19T03:14:16.197Z,68.38
2018-12-19T03:15:16.186Z,67.97
2018-12-19T03:16:16.173Z,68.27
2018-12-19T03:17:16.163Z,68.17
2018-12-19T03:18:16.167Z,68.17
2018-12-19T03:19:16.140Z,68.38
2018-12-19T03:20:16.130Z,68.59
2018-12-19T03:21:16.115Z,69.10
2018-12-19T03:22:16.104Z,69.93
2018-12-19T03:23:16.110Z,70.96
2018-12-19T03:24:16.082Z,72.30
2018-12-19T03:25:16.076Z,73.12
2018-12-19T03:26:16.057Z,73.16
2018-12-19T03:27:16.047Z,74.50
2018-12-19T03:28:16.052Z,74.40
2018-12-19T03:29:16.021Z,74.60
2018-12-19T03:30:16.013Z,76.81
2018-12-19T03:31:15.999Z,77.32
2018-12-19T03:32:15.987Z,78.14
2018-12-19T03:33:15.994Z,79.32
2018-12-19T03:34:15.963Z,79.11
2018-12-19T03:35:15.953Z,80.46
2018-12-19T03:36:15.939Z,81.80
2018-12-19T03:37:15.928Z,80.90
2018-12-19T03:38:15.936Z,82.45
2018-12-19T03:39:15.911Z,82.97
2018-12-19T03:40:15.895Z,83.07
2018-12-19T03:41:15.881Z,83.80
2018-12-19T03:42:15.872Z,83.39
2018-12-19T03:43:15.877Z,83.53
2018-12-19T03:44:15.853Z,84.52
2018-12-19T03:45:15.837Z,83.49
2018-12-19T03:46:15.827Z,85.24
2018-12-19T03:47:15.816Z,84.52
2018-12-19T03:48:15.822Z,84.94
2018-12-19T03:49:15.792Z,85.39
2018-12-19T03:50:15.824Z,85.70
2018-12-19T03:51:15.777Z,86.01
2018-12-19T03:52:15.757Z,85.91
2018-12-19T03:53:15.765Z,86.01
2018-12-19T03:54:15.739Z,86.11
2018-12-19T03:55:15.724Z,85.28
2018-12-19T03:56:15.714Z,86.01
2018-12-19T03:57:15.702Z,85.80
2018-12-19T03:58:15.706Z,86.73
2018-12-19T03:59:15.681Z,87.35
2018-12-19T04:00:15.674Z,86.21
2018-12-19T04:01:15.656Z,86.94
2018-12-19T04:02:15.647Z,86.94
2018-12-19T04:03:15.654Z,87.46
2018-12-19T04:04:15.622Z,86.94
2018-12-19T04:05:15.610Z,87.76
2018-12-19T04:06:15.598Z,87.46
2018-12-19T04:07:15.588Z,87.15
2018-12-19T04:08:15.577Z,87.35
2018-12-19T04:09:15.585Z,88.49
2018-12-19T04:10:15.555Z,88.07
2018-12-19T04:11:15.542Z,87.66
2018-12-19T04:12:15.531Z,88.84
2018-12-19T04:13:15.520Z,88.53
2018-12-19T04:14:15.526Z,89.15
2018-12-19T04:15:15.496Z,88.94
2018-12-19T04:16:15.486Z,88.53
2018-12-19T04:17:15.473Z,88.53
2018-12-19T04:18:15.461Z,88.64
2018-12-19T04:19:15.475Z,88.53
2018-12-19T04:20:15.438Z,88.64
2018-12-19T04:21:15.432Z,88.22
2018-12-19T04:22:15.418Z,88.74
2018-12-19T04:23:15.406Z,88.64
2018-12-19T04:24:15.416Z,88.53
2018-12-19T04:25:15.381Z,88.32
2018-12-19T04:26:15.370Z,88.64
2018-12-19T04:27:15.361Z,87.81
2018-12-19T04:28:15.348Z,88.74
2018-12-19T04:29:15.336Z,87.39
2018-12-19T04:30:15.349Z,88.64
2018-12-19T04:31:15.315Z,88.53
2018-12-19T04:32:15.306Z,88.07
2018-12-19T04:33:15.292Z,88.01
2018-12-19T04:34:15.279Z,88.12
2018-12-19T04:35:15.287Z,88.07
2018-12-19T04:36:15.259Z,87.46
2018-12-19T04:37:15.246Z,87.46
2018-12-19T04:38:15.234Z,87.25
2018-12-19T04:39:15.225Z,87.04
2018-12-19T04:40:15.234Z,86.21
2018-12-19T04:41:15.203Z,87.15
2018-12-19T04:42:15.192Z,86.42
2018-12-19T04:43:15.179Z,85.91
2018-12-19T04:44:15.168Z,86.42
2018-12-19T04:45:15.154Z,86.21
2018-12-19T04:46:15.160Z,86.21
2018-12-19T04:47:15.132Z,85.70
2018-12-19T04:48:15.121Z,86.52
2018-12-19T04:49:15.108Z,85.80
2018-12-19T04:50:15.104Z,86.11
2018-12-19T04:51:15.104Z,85.91
2018-12-19T04:52:15.076Z,86.42
2018-12-19T04:53:15.068Z,86.07
2018-12-19T04:54:15.054Z,86.21
2018-12-19T04:55:15.046Z,85.80
2018-12-19T04:56:15.047Z,85.70
2018-12-19T04:57:15.017Z,86.21
2018-12-19T04:58:15.005Z,86.32
2018-12-19T04:59:14.994Z,87.25
2018-12-19T05:00:14.981Z,86.52
2018-12-19T05:01:14.990Z,86.01
2018-12-19T05:02:14.958Z,85.91
2018-12-19T05:03:14.947Z,85.86
2018-12-19T05:04:14.936Z,85.35
2018-12-19T05:05:14.925Z,85.66
2018-12-19T05:06:14.937Z,84.87
2018-12-19T05:07:14.904Z,85.04
2018-12-19T05:08:14.891Z,85.35
2018-12-19T05:09:14.884Z,84.63
2018-12-19T05:10:14.874Z,85.04
2018-12-19T05:11:14.857Z,84.73
2018-12-19T05:12:14.885Z,85.24
2018-12-19T05:13:14.847Z,85.35
2018-12-19T05:14:14.823Z,85.45
2018-12-19T05:15:14.810Z,84.83
2018-12-19T05:16:14.803Z,85.55
2018-12-19T05:17:14.808Z,85.35
2018-12-19T05:18:14.778Z,84.83
2018-12-19T05:19:14.765Z,85.35
2018-12-19T05:20:14.754Z,85.66
2018-12-19T05:21:14.743Z,85.35
2018-12-19T05:22:14.749Z,85.66
2018-12-19T05:23:14.722Z,85.55
2018-12-19T05:24:15.869Z,85.86
2018-12-19T05:25:14.697Z,85.97
2018-12-19T05:26:14.689Z,85.66
2018-12-19T05:27:14.692Z,84.89
2018-12-19T05:28:14.663Z,85.62
2018-12-19T05:29:14.650Z,85.83
2018-12-19T05:30:14.641Z,85.86
2018-12-19T05:31:14.630Z,85.62
2018-12-19T05:32:14.634Z,85.10
2018-12-19T05:33:14.607Z,85.45
2018-12-19T05:34:14.593Z,84.89
2018-12-19T05:35:14.582Z,84.89
2018-12-19T05:36:14.572Z,85.21
2018-12-19T05:37:14.579Z,84.89
2018-12-19T05:38:14.551Z,85.83
2018-12-19T05:39:14.538Z,84.89
2018-12-19T05:40:18.793Z,85.10
2018-12-19T05:41:14.515Z,84.65
2018-12-19T05:42:14.521Z,84.96
2018-12-19T05:43:14.491Z,84.69
2018-12-19T05:44:14.481Z,84.75
2018-12-19T05:45:14.519Z,85.37
2018-12-19T05:46:14.457Z,84.86
2018-12-19T05:47:14.469Z,85.37
2018-12-19T05:48:14.435Z,84.61
2018-12-19T05:49:14.430Z,85.17
2018-12-19T05:50:14.412Z,85.89
2018-12-19T05:51:14.403Z,85.89
2018-12-19T05:52:14.388Z,85.89
2018-12-19T05:53:14.395Z,85.58
2018-12-19T05:54:14.365Z,85.78
2018-12-19T05:55:14.354Z,85.68
2018-12-19T05:56:14.342Z,85.47
2018-12-19T05:57:14.329Z,85.47
2018-12-19T05:58:14.336Z,86.20
2018-12-19T05:59:14.307Z,85.95
2018-12-19T06:00:14.295Z,85.99
2018-12-19T06:01:14.287Z,86.30
2018-12-19T06:02:14.272Z,87.02
2018-12-19T06:03:14.283Z,87.34
2018-12-19T06:04:14.251Z,87.34
2018-12-19T06:05:14.237Z,87.44
2018-12-19T06:06:14.226Z,87.34
2018-12-19T06:07:14.215Z,87.13
2018-12-19T06:08:14.227Z,87.58
2018-12-19T06:09:14.194Z,87.54
2018-12-19T06:10:14.187Z,87.65
2018-12-19T06:11:14.168Z,88.57
2018-12-19T06:12:14.156Z,88.31
2018-12-19T06:13:14.162Z,88.37
2018-12-19T06:14:14.134Z,88.57
2018-12-19T06:15:14.121Z,88.06
2018-12-19T06:16:14.109Z,88.47
2018-12-19T06:17:14.098Z,88.61
2018-12-19T06:18:14.103Z,89.71
2018-12-19T06:19:14.105Z,89.50
2018-12-19T06:20:14.061Z,89.50
2018-12-19T06:21:14.050Z,88.47
2018-12-19T06:22:14.039Z,89.19
2018-12-19T06:23:14.042Z,89.19
2018-12-19T06:24:14.014Z,89.81
2018-12-19T06:25:14.001Z,88.98
2018-12-19T06:26:13.989Z,89.61
2018-12-19T06:27:13.978Z,89.44
2018-12-19T06:28:13.986Z,89.19
2018-12-19T06:29:13.953Z,89.61
2018-12-19T06:30:13.941Z,89.81
2018-12-19T06:31:13.930Z,90.16
2018-12-19T06:32:13.916Z,90.33
2018-12-19T06:33:13.928Z,90.33
2018-12-19T06:34:13.893Z,90.16
2018-12-19T06:35:13.882Z,90.47
2018-12-19T06:36:13.871Z,90.26
2018-12-19T06:37:13.859Z,90.89
2018-12-19T06:38:13.846Z,91.40
2018-12-19T06:39:13.856Z,91.30
2018-12-19T06:40:13.821Z,91.20
2018-12-19T06:41:13.809Z,91.71
2018-12-19T06:42:13.799Z,92.13
2018-12-19T06:43:13.784Z,92.02
2018-12-19T06:44:13.792Z,92.23
2018-12-19T06:45:13.761Z,92.44
2018-12-19T06:46:13.751Z,92.33
2018-12-19T06:47:13.737Z,92.54
2018-12-19T06:48:13.727Z,92.54
2018-12-19T06:49:13.733Z,92.54
2018-12-19T06:50:13.703Z,92.54
2018-12-19T06:51:13.691Z,92.74
2018-12-19T06:52:13.680Z,92.64
2018-12-19T06:53:13.669Z,92.33
2018-12-19T06:54:13.680Z,92.95
2018-12-19T06:55:13.644Z,92.74
2018-12-19T06:56:13.634Z,92.85
2018-12-19T06:57:13.621Z,93.26
2018-12-19T06:58:13.610Z,93.05
2018-12-19T06:59:13.616Z,93.05
2018-12-19T07:00:13.587Z,93.47
2018-12-19T07:01:13.572Z,93.37
2018-12-19T07:02:13.560Z,92.85
2018-12-19T07:03:13.549Z,93.26
2018-12-19T07:04:13.556Z,93.05
2018-12-19T07:05:13.525Z,93.16
2018-12-19T07:06:13.512Z,93.16
2018-12-19T07:07:13.500Z,93.47
2018-12-19T07:08:13.490Z,93.37
2018-12-19T07:09:13.496Z,93.68
2018-12-19T07:10:13.464Z,93.68
2018-12-19T07:11:13.454Z,93.68
2018-12-19T07:12:13.443Z,93.88
2018-12-19T07:13:13.430Z,94.50
2018-12-19T07:14:13.456Z,94.04
2018-12-19T07:15:13.405Z,93.98
2018-12-19T07:16:13.396Z,94.04
2018-12-19T07:17:13.383Z,94.56
2018-12-19T07:18:13.369Z,93.98
2018-12-19T07:19:13.357Z,94.29
2018-12-19T07:20:13.363Z,93.84
2018-12-19T07:21:13.335Z,95.02
2018-12-19T07:22:13.328Z,94.81
2018-12-19T07:23:13.314Z,95.12
2018-12-19T07:24:13.300Z,95.12
2018-12-19T07:25:13.307Z,94.92
2018-12-19T07:26:13.277Z,95.64
2018-12-19T07:27:13.266Z,95.74
2018-12-19T07:28:13.250Z,95.95
2018-12-19T07:29:13.239Z,96.05
2018-12-19T07:30:13.250Z,95.84
2018-12-19T07:31:13.218Z,96.15
2018-12-19T07:32:13.205Z,96.05
2018-12-19T07:33:13.193Z,96.26
2018-12-19T07:34:13.181Z,95.84
2018-12-19T07:35:13.170Z,95.95
2018-12-19T07:36:13.175Z,96.15
2018-12-19T07:37:13.158Z,96.47
2018-12-19T07:38:13.131Z,96.15
2018-12-19T07:39:13.122Z,96.36
2018-12-19T07:40:13.109Z,96.36
2018-12-19T07:41:13.117Z,96.26
2018-12-19T07:42:13.087Z,96.36
2018-12-19T07:43:13.074Z,96.56
2018-12-19T07:44:13.059Z,96.47
2018-12-19T07:45:13.047Z,96.47
2018-12-19T07:46:19.662Z,96.67
2018-12-19T07:47:14.023Z,96.56
2018-12-19T07:48:13.016Z,96.77
2018-12-19T07:49:13.001Z,96.67
2018-12-19T07:50:12.992Z,96.67
2018-12-19T07:51:12.996Z,97.19
2018-12-19T07:52:12.965Z,97.19
2018-12-19T07:53:12.954Z,97.50
2018-12-19T07:54:12.945Z,96.88
2018-12-19T07:55:12.929Z,96.88
2018-12-19T07:56:12.936Z,97.81
2018-12-19T07:57:12.908Z,96.62
2018-12-19T07:58:12.894Z,97.14
2018-12-19T07:59:12.886Z,96.52
2018-12-19T08:00:12.871Z,96.42
2018-12-19T08:01:12.879Z,96.62
2018-12-19T08:02:12.848Z,96.56
2018-12-19T08:03:12.836Z,96.21
2018-12-19T08:04:12.825Z,96.52
2018-12-19T08:05:12.811Z,96.42
2018-12-19T08:06:12.819Z,96.31
2018-12-19T08:07:12.788Z,96.83
2018-12-19T08:08:12.780Z,96.67
2018-12-19T08:09:12.763Z,96.73
2018-12-19T08:10:12.751Z,96.42
2018-12-19T08:11:12.761Z,96.31
2018-12-19T08:12:12.729Z,96.42
2018-12-19T08:13:12.718Z,96.42
2018-12-19T08:14:12.704Z,96.31
2018-12-19T08:15:12.700Z,96.01
2018-12-19T08:16:12.703Z,96.01
2018-12-19T08:17:12.672Z,95.28
2018-12-19T08:18:12.663Z,94.97
2018-12-19T08:19:12.649Z,95.18
2018-12-19T08:20:12.639Z,95.28
2018-12-19T08:21:12.645Z,95.07
2018-12-19T08:22:12.613Z,95.07
2018-12-19T08:23:12.605Z,95.07
2018-12-19T08:24:12.590Z,94.87
2018-12-19T08:25:12.579Z,94.87
2018-12-19T08:26:12.591Z,94.52
2018-12-19T08:27:12.557Z,94.04
2018-12-19T08:28:12.548Z,94.31
2018-12-19T08:29:12.533Z,94.21
2018-12-19T08:30:12.528Z,94.10
2018-12-19T08:31:12.514Z,94.04
2018-12-19T08:32:12.521Z,93.90
2018-12-19T08:33:12.491Z,93.79
2018-12-19T08:34:12.478Z,94.00
2018-12-19T08:35:12.464Z,93.90
2018-12-19T08:36:12.454Z,94.21
2018-12-19T08:37:12.467Z,94.10
2018-12-19T08:38:12.431Z,94.00
2018-12-19T08:39:12.425Z,93.38
2018-12-19T08:40:12.406Z,93.59
2018-12-19T08:41:12.397Z,94.00
2018-12-19T08:42:12.418Z,93.49
2018-12-19T08:43:12.372Z,93.96
2018-12-19T08:44:12.360Z,93.24
2018-12-19T08:45:12.350Z,93.24
2018-12-19T08:46:14.626Z,92.61
2018-12-19T08:47:12.346Z,93.24
2018-12-19T08:48:12.316Z,93.44
2018-12-19T08:49:12.303Z,92.93
2018-12-19T08:50:12.288Z,92.93
2018-12-19T08:51:12.281Z,93.75
2018-12-19T08:52:12.283Z,92.82
2018-12-19T08:53:12.256Z,92.61
2018-12-19T08:54:12.241Z,92.41
2018-12-19T08:55:12.238Z,92.41
2018-12-19T08:56:12.219Z,92.82
2018-12-19T08:57:12.225Z,92.51
2018-12-19T08:58:12.193Z,92.61
2018-12-19T08:59:12.186Z,92.61
2018-12-19T09:00:12.168Z,93.54
2018-12-19T09:01:12.158Z,92.68
2018-12-19T09:02:12.171Z,92.68
2018-12-19T09:03:12.200Z,93.44
2018-12-19T09:04:12.123Z,92.10
2018-12-19T09:05:12.109Z,92.31
2018-12-19T09:06:12.097Z,92.41
2018-12-19T09:07:12.086Z,92.51
2018-12-19T09:08:12.093Z,92.21
2018-12-19T09:09:12.062Z,92.37
2018-12-19T09:10:12.051Z,92.47
2018-12-19T09:11:12.039Z,91.64
2018-12-19T09:12:12.025Z,92.37
2018-12-19T09:13:12.035Z,91.44
2018-12-19T09:14:12.003Z,91.71
2018-12-19T09:15:11.991Z,91.30
2018-12-19T09:16:11.982Z,91.05
2018-12-19T09:17:11.969Z,90.22
2018-12-19T09:18:11.977Z,88.84
2018-12-19T09:19:11.946Z,88.84
2018-12-19T09:20:11.934Z,89.62
2018-12-19T09:21:11.922Z,89.01
2018-12-19T09:22:11.932Z,88.10
2018-12-19T09:23:11.902Z,88.00
2018-12-19T09:24:11.885Z,86.62
2018-12-19T09:25:11.875Z,84.45
2018-12-19T09:26:11.864Z,81.46
2018-12-19T09:27:11.873Z,77.63
2018-12-19T09:28:11.842Z,75.58
2018-12-19T09:29:11.830Z,73.84
2018-12-19T09:30:11.818Z,71.36
2018-12-19T09:31:11.809Z,71.33
2018-12-19T09:32:11.793Z,70.31
2018-12-19T09:33:11.797Z,71.15
2018-12-19T09:34:11.767Z,70.34
2018-12-19T09:35:11.755Z,71.29
2018-12-19T09:36:11.744Z,71.06
2018-12-19T09:37:11.741Z,70.41
2018-12-19T09:38:11.740Z,70.31
2018-12-19T09:39:11.709Z,69.39
2018-12-19T09:40:11.699Z,70.82
2018-12-19T09:41:12.386Z,70.57
2018-12-19T09:42:11.675Z,72.86
2018-12-19T09:43:11.682Z,75.24
2018-12-19T09:44:11.653Z,76.23
2018-12-19T09:45:11.640Z,77.50
2018-12-19T09:46:11.630Z,77.97
2018-12-19T09:47:11.620Z,78.01
2018-12-19T09:48:11.626Z,78.66
2018-12-19T09:49:12.442Z,79.86
2018-12-19T09:50:11.588Z,79.75
2018-12-19T09:51:11.569Z,79.11
2018-12-19T09:52:11.559Z,79.27
2018-12-19T09:53:11.563Z,76.40
2018-12-19T09:54:11.536Z,70.38
2018-12-19T09:55:11.526Z,67.97
2018-12-19T09:56:11.513Z,68.21
2018-12-19T09:57:11.501Z,70.10
2018-12-19T09:58:11.507Z,70.89
2018-12-19T09:59:11.476Z,69.83
2018-12-19T10:00:11.463Z,68.68
2018-12-19T10:01:11.455Z,68.18
2018-12-19T10:02:11.442Z,65.97
2018-12-19T10:03:11.470Z,64.79
2018-12-19T10:04:11.417Z,62.98
2018-12-19T10:05:11.406Z,62.14
2018-12-19T10:06:11.394Z,62.65
2018-12-19T10:07:11.386Z,63.55
2018-12-19T10:08:11.371Z,64.52
2018-12-19T10:09:14.827Z,65.39
2018-12-19T10:10:11.348Z,65.23
2018-12-19T10:11:11.335Z,64.93
2018-12-19T10:12:11.322Z,66.04
2018-12-19T10:13:11.311Z,69.09
2018-12-19T10:14:11.315Z,70.68
2018-12-19T10:15:11.287Z,72.00
2018-12-19T10:16:11.275Z,71.53
2018-12-19T10:17:11.262Z,72.11
2018-12-19T10:18:11.251Z,73.98
2018-12-19T10:19:11.257Z,75.21
2018-12-19T10:20:11.229Z,74.43
2018-12-19T10:21:11.214Z,75.85
2018-12-19T10:22:11.212Z,75.89
2018-12-19T10:23:11.193Z,76.20
2018-12-19T10:24:11.207Z,77.36
2018-12-19T10:25:11.171Z,77.94
2018-12-19T10:26:11.161Z,78.08
2018-12-19T10:27:11.150Z,79.00
2018-12-19T10:28:11.137Z,80.21
2018-12-19T10:29:11.123Z,79.80
2018-12-19T10:30:11.129Z,80.41
2018-12-19T10:31:11.099Z,80.82
2018-12-19T10:32:11.089Z,79.96
2018-12-19T10:33:11.075Z,80.07
2018-12-19T10:34:11.062Z,79.24
2018-12-19T10:35:11.072Z,75.79
2018-12-19T10:36:11.040Z,71.53
2018-12-19T10:37:11.029Z,69.22
2018-12-19T10:38:11.020Z,68.38
2018-12-19T10:39:11.003Z,65.57
2018-12-19T10:40:11.014Z,63.88
2018-12-19T10:41:10.981Z,64.22
2018-12-19T10:42:10.970Z,67.32
2018-12-19T10:43:10.960Z,69.22
2018-12-19T10:44:10.952Z,68.68
2018-12-19T10:45:10.955Z,69.66
2018-12-19T10:46:10.923Z,71.15
2018-12-19T10:47:10.913Z,71.26
2018-12-19T10:48:10.900Z,71.70
2018-12-19T10:49:10.889Z,71.56
2018-12-19T10:50:10.882Z,68.57
2018-12-19T10:51:10.883Z,65.09
2018-12-19T10:52:10.858Z,63.48
2018-12-19T10:53:10.842Z,64.01
2018-12-19T10:54:10.829Z,62.59
2018-12-19T10:55:10.822Z,64.45
2018-12-19T10:56:10.824Z,63.68
2018-12-19T10:57:10.793Z,64.25
2018-12-19T10:58:10.781Z,65.36
2018-12-19T10:59:10.770Z,67.05
2018-12-19T11:00:10.756Z,69.12
2018-12-19T11:01:10.762Z,69.66
2018-12-19T11:02:10.732Z,70.31
2018-12-19T11:03:10.721Z,71.77
2018-12-19T11:04:10.708Z,71.29
2018-12-19T11:05:10.698Z,72.41
2018-12-19T11:06:10.706Z,72.65
2018-12-19T11:07:10.674Z,73.06
2018-12-19T11:08:10.680Z,70.21
2018-12-19T11:09:10.649Z,66.82
2018-12-19T11:10:10.644Z,64.29
2018-12-19T11:11:10.650Z,62.74
2018-12-19T11:12:10.620Z,61.56
2018-12-19T11:13:10.603Z,59.78
2018-12-19T11:14:10.589Z,58.44
2018-12-19T11:15:10.579Z,57.62
2018-12-19T11:16:10.588Z,58.28
2018-12-19T11:17:10.555Z,57.78
2018-12-19T11:18:10.543Z,56.63
2018-12-19T11:19:10.531Z,57.62
2018-12-19T11:20:10.519Z,58.41
2018-12-19T11:21:10.547Z,57.93
2018-12-19T11:22:10.495Z,57.70
2018-12-19T11:23:10.482Z,57.40
2018-12-19T11:24:10.474Z,57.07
2018-12-19T11:25:10.533Z,56.86
2018-12-19T11:26:10.465Z,57.98
2018-12-19T11:27:10.455Z,56.99
2018-12-19T11:28:10.424Z,57.09
2018-12-19T11:29:10.444Z,57.17
2018-12-19T11:30:10.403Z,56.84
2018-12-19T11:31:10.390Z,56.71
2018-12-19T11:32:10.399Z,55.62
2018-12-19T11:33:10.366Z,57.27
2018-12-19T11:34:10.355Z,56.84
2018-12-19T11:35:10.348Z,56.53
2018-12-19T11:36:10.335Z,57.04
2018-12-19T11:37:10.340Z,57.07
2018-12-19T11:38:10.310Z,56.05
2018-12-19T11:39:10.297Z,56.66
2018-12-19T11:40:10.288Z,56.13
2018-12-19T11:41:10.273Z,57.32
2018-12-19T11:42:10.292Z,57.96
2018-12-19T11:43:10.252Z,58.59
2018-12-19T11:44:10.239Z,58.39
2018-12-19T11:45:10.227Z,57.86
2018-12-19T11:46:10.215Z,59.17
2018-12-19T11:47:10.205Z,58.39
2018-12-19T11:48:10.210Z,59.43
2018-12-19T11:49:10.180Z,58.90
2018-12-19T11:50:10.170Z,58.69
2018-12-19T11:51:10.156Z,61.32
2018-12-19T11:52:10.143Z,61.68
2018-12-19T11:53:10.151Z,62.39
2018-12-19T11:54:10.119Z,64.11
2018-12-19T11:55:10.108Z,64.07
2018-12-19T11:58:39.821Z,64.69
2018-12-19T11:58:58.582Z,65.22
2018-12-19T11:59:58.577Z,65.33
2018-12-19T12:00:58.564Z,65.22
2018-12-19T12:01:58.551Z,64.18
2018-12-19T12:02:58.564Z,64.45
2018-12-19T12:03:58.528Z,64.45
2018-12-19T12:04:58.515Z,62.41
2018-12-19T12:05:58.503Z,63.00
2018-12-19T12:06:58.493Z,63.00
2018-12-19T12:07:58.499Z,63.58
2018-12-19T12:08:58.509Z,60.95
2018-12-19T12:09:58.456Z,59.97
2018-12-19T12:10:58.444Z,61.41
2018-12-19T12:11:58.434Z,60.88
2018-12-19T12:12:58.443Z,60.93
2018-12-19T12:13:58.410Z,60.35
2018-12-19T12:14:58.399Z,60.91
2018-12-19T12:15:58.389Z,64.04
2018-12-19T12:16:58.377Z,65.12
2018-12-19T12:17:58.392Z,66.20
2018-12-19T12:18:58.353Z,68.10
2018-12-19T12:19:58.341Z,70.07
2018-12-19T12:20:58.328Z,69.90
2018-12-19T12:21:58.317Z,70.31
2018-12-19T12:22:58.305Z,69.79
2018-12-19T12:23:58.313Z,71.26
2018-12-19T12:24:58.283Z,70.44
2018-12-19T12:25:58.270Z,71.26
2018-12-19T12:26:58.259Z,71.02
2018-12-19T12:27:58.246Z,71.26
2018-12-19T12:28:58.254Z,71.19
2018-12-19T12:29:58.226Z,71.80
2018-12-19T12:30:58.213Z,71.80
2018-12-19T12:31:58.200Z,71.80
2018-12-19T12:32:58.188Z,72.45
2018-12-19T12:33:58.203Z,72.65
2018-12-19T12:34:58.167Z,72.96
2018-12-19T12:35:58.155Z,73.61
2018-12-19T12:36:58.142Z,73.85
2018-12-19T12:37:58.133Z,73.61
2018-12-19T12:38:58.122Z,73.40
2018-12-19T12:39:58.131Z,74.66
2018-12-19T12:40:58.097Z,74.11
2018-12-19T12:41:58.085Z,74.46
2018-12-19T12:42:58.075Z,75.89
2018-12-19T12:43:58.063Z,74.66
2018-12-19T12:44:58.070Z,74.66
2018-12-19T12:45:58.040Z,75.42
2018-12-19T12:46:58.028Z,76.34
2018-12-19T12:47:58.018Z,76.13
2018-12-19T12:48:58.008Z,76.34
2018-12-19T12:49:58.019Z,75.72
2018-12-19T12:50:57.982Z,75.72
2018-12-19T12:51:57.970Z,76.64
2018-12-19T12:52:57.961Z,76.54
2018-12-19T12:53:57.947Z,76.37